sensor_id;sensor_type;location;lat;lon;timestamp;P1;durP1;ratioP1;P2;durP2;ratioP2
8596;SDS011;4336;49.310;8.646;2022-10-14T00:02:09;13.47;;;9.13;;
8596;SDS011;4336;49.310;8.646;2022-10-14T00:04:34;10.57;;;8.20;;
8596;SDS011;4336;49.310;8.646;2022-10-14T00:07:00;12.93;;;8.40;;
8596;SDS011;4336;49.310;8.646;2022-10-14T00:09:26;12.40;;;7.97;;
8596;SDS011;4336;49.310;8.646;2022-10-14T00:11:53;9.40;;;7.83;;
8596;SDS011;4336;49.310;8.646;2022-10-14T00:14:19;17.03;;;8.60;;
8596;SDS011;4336;49.310;8.646;2022-10-14T00:16:50;11.43;;;7.87;;
8596;SDS011;4336;49.310;8.646;2022-10-14T00:19:17;14.17;;;8.80;;
8596;SDS011;4336;49.310;8.646;2022-10-14T00:21:44;12.13;;;8.20;;
8596;SDS011;4336;49.310;8.646;2022-10-14T00:24:12;12.17;;;8.70;;
8596;SDS011;4336;49.310;8.646;2022-10-14T00:26:40;17.60;;;8.03;;
8596;SDS011;4336;49.310;8.646;2022-10-14T00:29:08;13.47;;;8.50;;
8596;SDS011;4336;49.310;8.646;2022-10-14T00:31:36;11.50;;;9.03;;
8596;SDS011;4336;49.310;8.646;2022-10-14T00:34:02;11.23;;;8.33;;
8596;SDS011;4336;49.310;8.646;2022-10-14T00:36:28;13.57;;;9.27;;
8596;SDS011;4336;49.310;8.646;2022-10-14T00:38:54;11.10;;;8.53;;
8596;SDS011;4336;49.310;8.646;2022-10-14T00:41:25;12.53;;;9.07;;
8596;SDS011;4336;49.310;8.646;2022-10-14T00:46:21;11.67;;;9.07;;
8596;SDS011;4336;49.310;8.646;2022-10-14T00:48:50;11.63;;;8.97;;
8596;SDS011;4336;49.310;8.646;2022-10-14T00:51:17;11.13;;;8.70;;
8596;SDS011;4336;49.310;8.646;2022-10-14T00:53:45;9.93;;;8.27;;
8596;SDS011;4336;49.310;8.646;2022-10-14T00:56:12;17.10;;;9.77;;
8596;SDS011;4336;49.310;8.646;2022-10-14T00:58:39;11.83;;;8.70;;
8596;SDS011;4336;49.310;8.646;2022-10-14T01:01:05;13.60;;;8.37;;
8596;SDS011;4336;49.310;8.646;2022-10-14T01:03:32;14.20;;;8.80;;
8596;SDS011;4336;49.310;8.646;2022-10-14T01:11:31;12.17;;;9.30;;
8596;SDS011;4336;49.310;8.646;2022-10-14T01:14:02;15.17;;;8.77;;
8596;SDS011;4336;49.310;8.646;2022-10-14T01:16:43;12.47;;;8.67;;
8596;SDS011;4336;49.310;8.646;2022-10-14T01:19:19;17.53;;;9.03;;
8596;SDS011;4336;49.310;8.646;2022-10-14T01:21:53;10.03;;;8.17;;
8596;SDS011;4336;49.310;8.646;2022-10-14T01:26:52;13.97;;;8.87;;
8596;SDS011;4336;49.310;8.646;2022-10-14T01:31:47;14.20;;;9.00;;
8596;SDS011;4336;49.310;8.646;2022-10-14T01:34:19;13.70;;;8.93;;
8596;SDS011;4336;49.310;8.646;2022-10-14T01:36:49;11.10;;;8.80;;
8596;SDS011;4336;49.310;8.646;2022-10-14T01:39:22;12.50;;;8.50;;
8596;SDS011;4336;49.310;8.646;2022-10-14T01:41:59;13.87;;;8.60;;
8596;SDS011;4336;49.310;8.646;2022-10-14T01:44:26;11.67;;;8.40;;
8596;SDS011;4336;49.310;8.646;2022-10-14T01:46:55;10.77;;;8.83;;
8596;SDS011;4336;49.310;8.646;2022-10-14T01:49:28;15.83;;;8.67;;
8596;SDS011;4336;49.310;8.646;2022-10-14T01:51:56;10.90;;;8.67;;
8596;SDS011;4336;49.310;8.646;2022-10-14T01:54:25;11.50;;;8.10;;
8596;SDS011;4336;49.310;8.646;2022-10-14T01:56:55;14.07;;;9.37;;
8596;SDS011;4336;49.310;8.646;2022-10-14T01:59:23;13.23;;;9.40;;
8596;SDS011;4336;49.310;8.646;2022-10-14T02:01:51;13.47;;;9.47;;
8596;SDS011;4336;49.310;8.646;2022-10-14T02:04:20;11.63;;;9.03;;
8596;SDS011;4336;49.310;8.646;2022-10-14T02:14:38;11.57;;;8.77;;
8596;SDS011;4336;49.310;8.646;2022-10-14T02:17:20;16.40;;;8.70;;
8596;SDS011;4336;49.310;8.646;2022-10-14T02:19:56;12.07;;;9.13;;
8596;SDS011;4336;49.310;8.646;2022-10-14T02:24:50;14.73;;;9.60;;
8596;SDS011;4336;49.310;8.646;2022-10-14T02:27:18;14.10;;;9.37;;
8596;SDS011;4336;49.310;8.646;2022-10-14T02:29:46;11.83;;;9.23;;
8596;SDS011;4336;49.310;8.646;2022-10-14T02:32:13;12.50;;;9.00;;
8596;SDS011;4336;49.310;8.646;2022-10-14T02:34:39;13.80;;;9.33;;
8596;SDS011;4336;49.310;8.646;2022-10-14T02:37:08;13.83;;;9.37;;
8596;SDS011;4336;49.310;8.646;2022-10-14T02:39:35;17.60;;;9.70;;
8596;SDS011;4336;49.310;8.646;2022-10-14T02:42:03;17.83;;;10.23;;
8596;SDS011;4336;49.310;8.646;2022-10-14T02:44:32;18.13;;;9.57;;
8596;SDS011;4336;49.310;8.646;2022-10-14T02:46:59;24.93;;;9.57;;
8596;SDS011;4336;49.310;8.646;2022-10-14T02:49:27;26.77;;;10.83;;
8596;SDS011;4336;49.310;8.646;2022-10-14T02:51:53;16.17;;;8.73;;
8596;SDS011;4336;49.310;8.646;2022-10-14T02:54:19;13.70;;;9.10;;
8596;SDS011;4336;49.310;8.646;2022-10-14T02:56:46;11.97;;;9.53;;
8596;SDS011;4336;49.310;8.646;2022-10-14T02:59:12;19.67;;;10.10;;
8596;SDS011;4336;49.310;8.646;2022-10-14T03:01:38;13.70;;;9.67;;
8596;SDS011;4336;49.310;8.646;2022-10-14T03:04:07;18.50;;;10.07;;
8596;SDS011;4336;49.310;8.646;2022-10-14T03:06:33;12.97;;;9.73;;
8596;SDS011;4336;49.310;8.646;2022-10-14T03:09:00;32.53;;;10.87;;
8596;SDS011;4336;49.310;8.646;2022-10-14T03:11:30;17.53;;;10.97;;
8596;SDS011;4336;49.310;8.646;2022-10-14T03:14:02;16.90;;;9.80;;
8596;SDS011;4336;49.310;8.646;2022-10-14T03:16:28;15.80;;;10.13;;
8596;SDS011;4336;49.310;8.646;2022-10-14T03:18:55;16.23;;;10.27;;
8596;SDS011;4336;49.310;8.646;2022-10-14T03:21:35;16.50;;;10.40;;
8596;SDS011;4336;49.310;8.646;2022-10-14T03:24:02;20.33;;;9.77;;
8596;SDS011;4336;49.310;8.646;2022-10-14T03:26:32;15.90;;;10.37;;
8596;SDS011;4336;49.310;8.646;2022-10-14T03:28:58;14.40;;;10.03;;
8596;SDS011;4336;49.310;8.646;2022-10-14T03:31:37;13.43;;;9.07;;
8596;SDS011;4336;49.310;8.646;2022-10-14T03:34:21;16.73;;;10.03;;
8596;SDS011;4336;49.310;8.646;2022-10-14T03:36:52;14.93;;;10.10;;
8596;SDS011;4336;49.310;8.646;2022-10-14T03:39:19;12.50;;;9.67;;
8596;SDS011;4336;49.310;8.646;2022-10-14T03:41:49;14.83;;;9.93;;
8596;SDS011;4336;49.310;8.646;2022-10-14T03:44:20;15.93;;;9.23;;
8596;SDS011;4336;49.310;8.646;2022-10-14T03:47:11;15.33;;;8.93;;
8596;SDS011;4336;49.310;8.646;2022-10-14T03:49:37;12.67;;;8.87;;
8596;SDS011;4336;49.310;8.646;2022-10-14T03:52:11;15.63;;;9.37;;
8596;SDS011;4336;49.310;8.646;2022-10-14T03:54:38;13.67;;;9.40;;
8596;SDS011;4336;49.310;8.646;2022-10-14T03:57:04;12.30;;;8.53;;
8596;SDS011;4336;49.310;8.646;2022-10-14T03:59:38;11.23;;;9.37;;
8596;SDS011;4336;49.310;8.646;2022-10-14T04:02:07;13.97;;;9.27;;
8596;SDS011;4336;49.310;8.646;2022-10-14T04:04:34;12.97;;;8.50;;
8596;SDS011;4336;49.310;8.646;2022-10-14T04:07:00;12.97;;;9.63;;
8596;SDS011;4336;49.310;8.646;2022-10-14T04:09:27;12.63;;;9.30;;
8596;SDS011;4336;49.310;8.646;2022-10-14T04:11:53;11.80;;;9.20;;
8596;SDS011;4336;49.310;8.646;2022-10-14T04:14:41;13.30;;;9.70;;
8596;SDS011;4336;49.310;8.646;2022-10-14T04:17:07;14.27;;;8.80;;
8596;SDS011;4336;49.310;8.646;2022-10-14T04:19:33;15.43;;;9.60;;
8596;SDS011;4336;49.310;8.646;2022-10-14T04:22:01;16.07;;;9.40;;
8596;SDS011;4336;49.310;8.646;2022-10-14T04:24:27;17.23;;;8.93;;
8596;SDS011;4336;49.310;8.646;2022-10-14T04:26:57;13.60;;;9.53;;
8596;SDS011;4336;49.310;8.646;2022-10-14T04:29:33;12.50;;;9.57;;
8596;SDS011;4336;49.310;8.646;2022-10-14T04:32:05;23.97;;;10.03;;
8596;SDS011;4336;49.310;8.646;2022-10-14T04:34:33;12.63;;;9.87;;
8596;SDS011;4336;49.310;8.646;2022-10-14T04:36:59;11.80;;;9.30;;
8596;SDS011;4336;49.310;8.646;2022-10-14T04:39:54;13.67;;;8.67;;
8596;SDS011;4336;49.310;8.646;2022-10-14T04:42:21;10.83;;;8.47;;
8596;SDS011;4336;49.310;8.646;2022-10-14T04:44:50;15.77;;;9.03;;
8596;SDS011;4336;49.310;8.646;2022-10-14T04:47:23;13.43;;;9.67;;
8596;SDS011;4336;49.310;8.646;2022-10-14T04:49:54;13.97;;;9.10;;
8596;SDS011;4336;49.310;8.646;2022-10-14T04:52:21;13.40;;;9.43;;
8596;SDS011;4336;49.310;8.646;2022-10-14T04:54:55;17.23;;;9.70;;
8596;SDS011;4336;49.310;8.646;2022-10-14T04:57:32;11.17;;;8.83;;
8596;SDS011;4336;49.310;8.646;2022-10-14T05:00:00;15.27;;;9.20;;
8596;SDS011;4336;49.310;8.646;2022-10-14T05:02:42;13.43;;;9.20;;
8596;SDS011;4336;49.310;8.646;2022-10-14T05:05:09;10.07;;;8.30;;
8596;SDS011;4336;49.310;8.646;2022-10-14T05:07:38;11.63;;;9.13;;
8596;SDS011;4336;49.310;8.646;2022-10-14T05:10:20;12.97;;;9.17;;
8596;SDS011;4336;49.310;8.646;2022-10-14T05:12:46;13.43;;;8.77;;
8596;SDS011;4336;49.310;8.646;2022-10-14T05:15:13;13.23;;;9.43;;
8596;SDS011;4336;49.310;8.646;2022-10-14T05:17:48;16.50;;;8.83;;
8596;SDS011;4336;49.310;8.646;2022-10-14T05:20:17;11.57;;;8.90;;
8596;SDS011;4336;49.310;8.646;2022-10-14T05:22:48;12.30;;;8.73;;
8596;SDS011;4336;49.310;8.646;2022-10-14T05:25:15;12.07;;;8.77;;
8596;SDS011;4336;49.310;8.646;2022-10-14T05:27:42;15.03;;;9.43;;
8596;SDS011;4336;49.310;8.646;2022-10-14T05:30:08;19.97;;;9.60;;
8596;SDS011;4336;49.310;8.646;2022-10-14T05:32:40;10.10;;;8.70;;
8596;SDS011;4336;49.310;8.646;2022-10-14T05:35:07;9.43;;;8.10;;
8596;SDS011;4336;49.310;8.646;2022-10-14T05:37:38;10.63;;;8.37;;
8596;SDS011;4336;49.310;8.646;2022-10-14T05:40:05;13.20;;;8.33;;
8596;SDS011;4336;49.310;8.646;2022-10-14T05:42:34;10.87;;;8.17;;
8596;SDS011;4336;49.310;8.646;2022-10-14T05:45:00;15.37;;;9.40;;
8596;SDS011;4336;49.310;8.646;2022-10-14T05:47:28;9.33;;;7.40;;
8596;SDS011;4336;49.310;8.646;2022-10-14T05:49:59;10.43;;;8.23;;
8596;SDS011;4336;49.310;8.646;2022-10-14T05:52:28;14.17;;;8.53;;
8596;SDS011;4336;49.310;8.646;2022-10-14T05:54:58;10.17;;;8.20;;
8596;SDS011;4336;49.310;8.646;2022-10-14T05:57:26;17.70;;;8.07;;
8596;SDS011;4336;49.310;8.646;2022-10-14T05:59:53;12.33;;;8.70;;
8596;SDS011;4336;49.310;8.646;2022-10-14T06:02:19;10.20;;;8.50;;
8596;SDS011;4336;49.310;8.646;2022-10-14T06:04:46;11.90;;;8.83;;
8596;SDS011;4336;49.310;8.646;2022-10-14T06:07:12;8.50;;;7.63;;
8596;SDS011;4336;49.310;8.646;2022-10-14T06:09:39;9.17;;;7.97;;
8596;SDS011;4336;49.310;8.646;2022-10-14T06:12:05;9.47;;;8.07;;
8596;SDS011;4336;49.310;8.646;2022-10-14T06:14:32;12.00;;;8.33;;
8596;SDS011;4336;49.310;8.646;2022-10-14T06:16:58;10.23;;;8.60;;
8596;SDS011;4336;49.310;8.646;2022-10-14T06:19:24;13.10;;;7.80;;
8596;SDS011;4336;49.310;8.646;2022-10-14T06:21:50;8.70;;;7.37;;
8596;SDS011;4336;49.310;8.646;2022-10-14T06:24:17;9.10;;;7.73;;
8596;SDS011;4336;49.310;8.646;2022-10-14T06:26:43;9.33;;;8.33;;
8596;SDS011;4336;49.310;8.646;2022-10-14T06:29:09;11.67;;;7.77;;
8596;SDS011;4336;49.310;8.646;2022-10-14T06:31:35;13.93;;;8.17;;
8596;SDS011;4336;49.310;8.646;2022-10-14T06:34:03;10.30;;;7.53;;
8596;SDS011;4336;49.310;8.646;2022-10-14T06:36:30;8.87;;;7.60;;
8596;SDS011;4336;49.310;8.646;2022-10-14T06:38:56;10.73;;;8.37;;
8596;SDS011;4336;49.310;8.646;2022-10-14T06:41:22;15.43;;;8.93;;
8596;SDS011;4336;49.310;8.646;2022-10-14T06:43:48;11.23;;;8.43;;
8596;SDS011;4336;49.310;8.646;2022-10-14T06:46:15;18.37;;;8.77;;
8596;SDS011;4336;49.310;8.646;2022-10-14T06:48:41;12.00;;;7.53;;
8596;SDS011;4336;49.310;8.646;2022-10-14T06:51:07;16.13;;;8.03;;
8596;SDS011;4336;49.310;8.646;2022-10-14T06:53:34;12.20;;;7.80;;
8596;SDS011;4336;49.310;8.646;2022-10-14T06:56:04;10.53;;;7.90;;
8596;SDS011;4336;49.310;8.646;2022-10-14T06:58:30;10.23;;;8.73;;
8596;SDS011;4336;49.310;8.646;2022-10-14T07:01:00;12.00;;;8.33;;
8596;SDS011;4336;49.310;8.646;2022-10-14T07:03:27;9.13;;;8.03;;
8596;SDS011;4336;49.310;8.646;2022-10-14T07:05:53;16.83;;;8.83;;
8596;SDS011;4336;49.310;8.646;2022-10-14T07:08:19;9.83;;;7.67;;
8596;SDS011;4336;49.310;8.646;2022-10-14T07:10:46;9.43;;;8.20;;
8596;SDS011;4336;49.310;8.646;2022-10-14T07:13:12;10.07;;;7.70;;
8596;SDS011;4336;49.310;8.646;2022-10-14T07:15:38;10.23;;;9.17;;
8596;SDS011;4336;49.310;8.646;2022-10-14T07:18:05;8.50;;;7.60;;
8596;SDS011;4336;49.310;8.646;2022-10-14T07:20:32;10.93;;;7.87;;
8596;SDS011;4336;49.310;8.646;2022-10-14T07:22:59;12.47;;;8.03;;
8596;SDS011;4336;49.310;8.646;2022-10-14T07:25:25;16.27;;;9.27;;
8596;SDS011;4336;49.310;8.646;2022-10-14T07:27:51;9.77;;;6.97;;
8596;SDS011;4336;49.310;8.646;2022-10-14T07:30:18;9.87;;;7.10;;
8596;SDS011;4336;49.310;8.646;2022-10-14T07:32:44;9.30;;;6.97;;
8596;SDS011;4336;49.310;8.646;2022-10-14T07:35:10;14.87;;;8.33;;
8596;SDS011;4336;49.310;8.646;2022-10-14T07:37:36;9.07;;;7.77;;
8596;SDS011;4336;49.310;8.646;2022-10-14T07:40:03;11.63;;;7.87;;
8596;SDS011;4336;49.310;8.646;2022-10-14T07:42:29;8.70;;;7.10;;
8596;SDS011;4336;49.310;8.646;2022-10-14T07:44:55;9.87;;;7.97;;
8596;SDS011;4336;49.310;8.646;2022-10-14T07:47:22;15.27;;;8.20;;
8596;SDS011;4336;49.310;8.646;2022-10-14T07:49:48;12.00;;;7.30;;
8596;SDS011;4336;49.310;8.646;2022-10-14T07:52:14;9.37;;;8.10;;
8596;SDS011;4336;49.310;8.646;2022-10-14T07:54:40;9.97;;;7.37;;
8596;SDS011;4336;49.310;8.646;2022-10-14T07:57:06;11.63;;;8.53;;
8596;SDS011;4336;49.310;8.646;2022-10-14T07:59:32;8.20;;;7.40;;
8596;SDS011;4336;49.310;8.646;2022-10-14T08:01:58;9.93;;;8.07;;
8596;SDS011;4336;49.310;8.646;2022-10-14T08:04:24;9.23;;;7.03;;
8596;SDS011;4336;49.310;8.646;2022-10-14T08:06:50;10.73;;;7.83;;
8596;SDS011;4336;49.310;8.646;2022-10-14T08:09:17;8.83;;;7.33;;
8596;SDS011;4336;49.310;8.646;2022-10-14T08:11:43;7.90;;;7.17;;
8596;SDS011;4336;49.310;8.646;2022-10-14T08:14:09;10.00;;;7.80;;
8596;SDS011;4336;49.310;8.646;2022-10-14T08:16:36;8.50;;;7.43;;
8596;SDS011;4336;49.310;8.646;2022-10-14T08:19:09;6.90;;;6.20;;
8596;SDS011;4336;49.310;8.646;2022-10-14T08:21:35;8.90;;;7.43;;
8596;SDS011;4336;49.310;8.646;2022-10-14T08:24:01;12.90;;;7.50;;
8596;SDS011;4336;49.310;8.646;2022-10-14T08:26:28;8.37;;;7.37;;
8596;SDS011;4336;49.310;8.646;2022-10-14T08:29:00;9.63;;;7.33;;
8596;SDS011;4336;49.310;8.646;2022-10-14T08:31:27;7.77;;;7.07;;
8596;SDS011;4336;49.310;8.646;2022-10-14T08:33:53;13.37;;;9.73;;
8596;SDS011;4336;49.310;8.646;2022-10-14T08:36:19;11.97;;;8.53;;
8596;SDS011;4336;49.310;8.646;2022-10-14T08:38:46;9.93;;;7.47;;
8596;SDS011;4336;49.310;8.646;2022-10-14T08:43:48;10.13;;;7.67;;
8596;SDS011;4336;49.310;8.646;2022-10-14T08:49:25;10.23;;;7.80;;
8596;SDS011;4336;49.310;8.646;2022-10-14T08:52:54;9.77;;;7.53;;
8596;SDS011;4336;49.310;8.646;2022-10-14T08:55:22;15.07;;;7.83;;
8596;SDS011;4336;49.310;8.646;2022-10-14T08:57:52;8.27;;;7.47;;
8596;SDS011;4336;49.310;8.646;2022-10-14T09:00:20;10.37;;;7.40;;
8596;SDS011;4336;49.310;8.646;2022-10-14T09:02:48;12.77;;;7.57;;
8596;SDS011;4336;49.310;8.646;2022-10-14T09:05:16;12.60;;;8.13;;
8596;SDS011;4336;49.310;8.646;2022-10-14T09:07:47;9.50;;;7.00;;
8596;SDS011;4336;49.310;8.646;2022-10-14T09:10:17;19.07;;;7.67;;
8596;SDS011;4336;49.310;8.646;2022-10-14T09:13:14;9.60;;;7.50;;
8596;SDS011;4336;49.310;8.646;2022-10-14T09:15:51;9.00;;;7.67;;
8596;SDS011;4336;49.310;8.646;2022-10-14T09:18:23;11.50;;;7.67;;
8596;SDS011;4336;49.310;8.646;2022-10-14T09:20:52;7.93;;;6.97;;
8596;SDS011;4336;49.310;8.646;2022-10-14T09:23:19;11.33;;;7.17;;
8596;SDS011;4336;49.310;8.646;2022-10-14T09:25:54;12.60;;;7.60;;
8596;SDS011;4336;49.310;8.646;2022-10-14T09:28:24;12.50;;;6.83;;
8596;SDS011;4336;49.310;8.646;2022-10-14T09:31:07;8.27;;;7.33;;
8596;SDS011;4336;49.310;8.646;2022-10-14T09:33:35;8.20;;;7.40;;
8596;SDS011;4336;49.310;8.646;2022-10-14T09:36:15;9.47;;;7.30;;
8596;SDS011;4336;49.310;8.646;2022-10-14T09:38:44;10.83;;;7.97;;
8596;SDS011;4336;49.310;8.646;2022-10-14T09:41:11;8.60;;;6.43;;
8596;SDS011;4336;49.310;8.646;2022-10-14T09:43:43;7.63;;;6.93;;
8596;SDS011;4336;49.310;8.646;2022-10-14T09:46:37;9.10;;;7.40;;
8596;SDS011;4336;49.310;8.646;2022-10-14T09:49:02;8.57;;;7.63;;
8596;SDS011;4336;49.310;8.646;2022-10-14T09:51:29;7.40;;;6.70;;
8596;SDS011;4336;49.310;8.646;2022-10-14T09:53:56;8.67;;;6.50;;
8596;SDS011;4336;49.310;8.646;2022-10-14T09:56:34;8.90;;;7.00;;
8596;SDS011;4336;49.310;8.646;2022-10-14T09:59:01;7.50;;;6.80;;
8596;SDS011;4336;49.310;8.646;2022-10-14T10:01:33;10.83;;;8.03;;
8596;SDS011;4336;49.310;8.646;2022-10-14T10:06:54;9.07;;;6.60;;
8596;SDS011;4336;49.310;8.646;2022-10-14T10:09:20;8.17;;;6.57;;
8596;SDS011;4336;49.310;8.646;2022-10-14T10:11:46;9.73;;;7.53;;
8596;SDS011;4336;49.310;8.646;2022-10-14T10:19:34;10.80;;;7.43;;
8596;SDS011;4336;49.310;8.646;2022-10-14T10:24:44;7.57;;;6.87;;
8596;SDS011;4336;49.310;8.646;2022-10-14T10:27:22;8.77;;;6.70;;
8596;SDS011;4336;49.310;8.646;2022-10-14T10:29:53;8.53;;;6.83;;
8596;SDS011;4336;49.310;8.646;2022-10-14T10:32:39;7.20;;;6.50;;
8596;SDS011;4336;49.310;8.646;2022-10-14T10:37:57;7.10;;;6.40;;
8596;SDS011;4336;49.310;8.646;2022-10-14T10:40:52;9.90;;;6.77;;
8596;SDS011;4336;49.310;8.646;2022-10-14T10:46:14;10.23;;;6.60;;
8596;SDS011;4336;49.310;8.646;2022-10-14T10:51:39;8.47;;;6.50;;
8596;SDS011;4336;49.310;8.646;2022-10-14T10:54:20;10.17;;;6.43;;
8596;SDS011;4336;49.310;8.646;2022-10-14T10:57:19;8.60;;;5.90;;
8596;SDS011;4336;49.310;8.646;2022-10-14T11:00:02;12.40;;;6.07;;
8596;SDS011;4336;49.310;8.646;2022-10-14T11:03:07;7.83;;;5.80;;
8596;SDS011;4336;49.310;8.646;2022-10-14T11:17:33;6.13;;;5.53;;
8596;SDS011;4336;49.310;8.646;2022-10-14T11:20:33;10.53;;;6.10;;
8596;SDS011;4336;49.310;8.646;2022-10-14T11:25:57;10.63;;;7.00;;
8596;SDS011;4336;49.310;8.646;2022-10-14T11:43:33;7.00;;;5.80;;
8596;SDS011;4336;49.310;8.646;2022-10-14T11:46:05;10.93;;;5.90;;
8596;SDS011;4336;49.310;8.646;2022-10-14T11:54:23;5.83;;;5.23;;
8596;SDS011;4336;49.310;8.646;2022-10-14T11:57:00;8.40;;;5.80;;
8596;SDS011;4336;49.310;8.646;2022-10-14T11:59:33;6.37;;;5.77;;
8596;SDS011;4336;49.310;8.646;2022-10-14T12:02:49;6.90;;;6.20;;
8596;SDS011;4336;49.310;8.646;2022-10-14T12:05:19;6.07;;;5.57;;
8596;SDS011;4336;49.310;8.646;2022-10-14T12:08:12;6.03;;;5.47;;
8596;SDS011;4336;49.310;8.646;2022-10-14T12:10:50;10.80;;;5.87;;
8596;SDS011;4336;49.310;8.646;2022-10-14T12:13:26;6.03;;;5.17;;
8596;SDS011;4336;49.310;8.646;2022-10-14T12:16:21;6.03;;;5.37;;
8596;SDS011;4336;49.310;8.646;2022-10-14T12:18:49;8.53;;;5.67;;
8596;SDS011;4336;49.310;8.646;2022-10-14T12:21:29;6.60;;;5.97;;
8596;SDS011;4336;49.310;8.646;2022-10-14T12:26:55;7.30;;;5.60;;
8596;SDS011;4336;49.310;8.646;2022-10-14T12:29:36;7.70;;;5.20;;
8596;SDS011;4336;49.310;8.646;2022-10-14T12:32:07;6.20;;;5.70;;
8596;SDS011;4336;49.310;8.646;2022-10-14T12:34:46;6.20;;;5.60;;
8596;SDS011;4336;49.310;8.646;2022-10-14T12:45:02;6.60;;;6.00;;
8596;SDS011;4336;49.310;8.646;2022-10-14T12:47:39;6.10;;;5.50;;
8596;SDS011;4336;49.310;8.646;2022-10-14T12:52:45;7.90;;;5.93;;
8596;SDS011;4336;49.310;8.646;2022-10-14T12:55:16;7.33;;;5.67;;
8596;SDS011;4336;49.310;8.646;2022-10-14T12:57:42;6.37;;;5.77;;
8596;SDS011;4336;49.310;8.646;2022-10-14T13:02:47;11.33;;;6.13;;
8596;SDS011;4336;49.310;8.646;2022-10-14T13:05:36;6.53;;;6.00;;
8596;SDS011;4336;49.310;8.646;2022-10-14T13:10:45;8.63;;;5.37;;
8596;SDS011;4336;49.310;8.646;2022-10-14T13:16:06;6.60;;;5.63;;
8596;SDS011;4336;49.310;8.646;2022-10-14T13:34:31;6.57;;;5.97;;
8596;SDS011;4336;49.310;8.646;2022-10-14T13:39:45;6.43;;;5.53;;
8596;SDS011;4336;49.310;8.646;2022-10-14T13:42:12;7.90;;;7.10;;
8596;SDS011;4336;49.310;8.646;2022-10-14T13:44:40;7.53;;;5.97;;
8596;SDS011;4336;49.310;8.646;2022-10-14T13:47:08;7.03;;;5.70;;
8596;SDS011;4336;49.310;8.646;2022-10-14T13:49:37;6.90;;;5.80;;
8596;SDS011;4336;49.310;8.646;2022-10-14T13:52:05;7.13;;;6.43;;
8596;SDS011;4336;49.310;8.646;2022-10-14T13:54:34;6.90;;;6.13;;
8596;SDS011;4336;49.310;8.646;2022-10-14T13:57:16;6.67;;;6.07;;
8596;SDS011;4336;49.310;8.646;2022-10-14T13:59:43;7.23;;;6.40;;
8596;SDS011;4336;49.310;8.646;2022-10-14T14:02:20;7.03;;;6.33;;
8596;SDS011;4336;49.310;8.646;2022-10-14T14:04:49;6.60;;;6.00;;
8596;SDS011;4336;49.310;8.646;2022-10-14T14:07:17;10.60;;;6.10;;
8596;SDS011;4336;49.310;8.646;2022-10-14T14:09:48;7.53;;;5.90;;
8596;SDS011;4336;49.310;8.646;2022-10-14T14:12:15;9.50;;;5.70;;
8596;SDS011;4336;49.310;8.646;2022-10-14T14:14:45;8.47;;;6.07;;
8596;SDS011;4336;49.310;8.646;2022-10-14T14:17:17;7.43;;;5.47;;
8596;SDS011;4336;49.310;8.646;2022-10-14T14:19:47;7.13;;;6.53;;
8596;SDS011;4336;49.310;8.646;2022-10-14T14:24:46;6.67;;;5.93;;
8596;SDS011;4336;49.310;8.646;2022-10-14T14:27:13;6.10;;;5.27;;
8596;SDS011;4336;49.310;8.646;2022-10-14T14:29:41;7.47;;;5.73;;
8596;SDS011;4336;49.310;8.646;2022-10-14T14:32:19;6.40;;;5.87;;
8596;SDS011;4336;49.310;8.646;2022-10-14T14:34:54;7.37;;;6.00;;
8596;SDS011;4336;49.310;8.646;2022-10-14T14:37:30;6.23;;;5.70;;
8596;SDS011;4336;49.310;8.646;2022-10-14T14:40:03;8.97;;;5.50;;
8596;SDS011;4336;49.310;8.646;2022-10-14T14:42:39;11.23;;;8.20;;
8596;SDS011;4336;49.310;8.646;2022-10-14T14:45:09;11.73;;;6.97;;
8596;SDS011;4336;49.310;8.646;2022-10-14T14:47:49;8.07;;;7.00;;
8596;SDS011;4336;49.310;8.646;2022-10-14T14:50:20;8.80;;;6.97;;
8596;SDS011;4336;49.310;8.646;2022-10-14T14:52:50;10.90;;;7.13;;
8596;SDS011;4336;49.310;8.646;2022-10-14T14:57:59;6.57;;;5.87;;
8596;SDS011;4336;49.310;8.646;2022-10-14T15:00:26;8.33;;;5.90;;
8596;SDS011;4336;49.310;8.646;2022-10-14T15:02:57;8.53;;;6.63;;
8596;SDS011;4336;49.310;8.646;2022-10-14T15:05:24;9.07;;;6.70;;
8596;SDS011;4336;49.310;8.646;2022-10-14T15:07:50;9.70;;;6.53;;
8596;SDS011;4336;49.310;8.646;2022-10-14T15:10:20;7.20;;;6.23;;
8596;SDS011;4336;49.310;8.646;2022-10-14T15:12:51;7.30;;;5.70;;
8596;SDS011;4336;49.310;8.646;2022-10-14T15:18:02;9.67;;;6.47;;
8596;SDS011;4336;49.310;8.646;2022-10-14T15:20:30;8.77;;;7.20;;
8596;SDS011;4336;49.310;8.646;2022-10-14T15:22:58;11.03;;;6.87;;
8596;SDS011;4336;49.310;8.646;2022-10-14T15:25:28;7.07;;;6.30;;
8596;SDS011;4336;49.310;8.646;2022-10-14T15:27:55;7.77;;;6.23;;
8596;SDS011;4336;49.310;8.646;2022-10-14T15:30:23;7.67;;;6.33;;
8596;SDS011;4336;49.310;8.646;2022-10-14T15:33:00;6.77;;;5.80;;
8596;SDS011;4336;49.310;8.646;2022-10-14T15:35:27;7.63;;;6.47;;
8596;SDS011;4336;49.310;8.646;2022-10-14T15:37:53;8.80;;;7.53;;
8596;SDS011;4336;49.310;8.646;2022-10-14T15:40:30;7.20;;;6.50;;
8596;SDS011;4336;49.310;8.646;2022-10-14T15:42:56;7.17;;;6.23;;
8596;SDS011;4336;49.310;8.646;2022-10-14T15:45:22;8.60;;;6.43;;
8596;SDS011;4336;49.310;8.646;2022-10-14T15:47:56;7.20;;;6.23;;
8596;SDS011;4336;49.310;8.646;2022-10-14T15:50:24;7.37;;;6.03;;
8596;SDS011;4336;49.310;8.646;2022-10-14T15:52:51;11.20;;;6.20;;
8596;SDS011;4336;49.310;8.646;2022-10-14T15:55:24;9.03;;;6.80;;
8596;SDS011;4336;49.310;8.646;2022-10-14T15:57:51;8.83;;;7.43;;
8596;SDS011;4336;49.310;8.646;2022-10-14T16:00:18;8.03;;;7.23;;
8596;SDS011;4336;49.310;8.646;2022-10-14T16:02:45;7.87;;;6.50;;
8596;SDS011;4336;49.310;8.646;2022-10-14T16:05:12;7.10;;;6.30;;
8596;SDS011;4336;49.310;8.646;2022-10-14T16:07:38;11.50;;;9.10;;
8596;SDS011;4336;49.310;8.646;2022-10-14T16:10:05;9.70;;;7.00;;
8596;SDS011;4336;49.310;8.646;2022-10-14T16:12:32;9.20;;;7.90;;
8596;SDS011;4336;49.310;8.646;2022-10-14T16:14:58;9.60;;;7.83;;
8596;SDS011;4336;49.310;8.646;2022-10-14T16:17:26;8.53;;;6.77;;
8596;SDS011;4336;49.310;8.646;2022-10-14T16:19:52;10.63;;;8.67;;
8596;SDS011;4336;49.310;8.646;2022-10-14T16:22:18;8.87;;;7.53;;
8596;SDS011;4336;49.310;8.646;2022-10-14T16:24:43;11.97;;;7.37;;
8596;SDS011;4336;49.310;8.646;2022-10-14T16:27:10;9.50;;;8.30;;
8596;SDS011;4336;49.310;8.646;2022-10-14T16:29:36;9.93;;;7.70;;
8596;SDS011;4336;49.310;8.646;2022-10-14T16:32:01;10.93;;;8.43;;
8596;SDS011;4336;49.310;8.646;2022-10-14T16:34:27;19.03;;;11.23;;
8596;SDS011;4336;49.310;8.646;2022-10-14T16:36:53;13.37;;;8.77;;
8596;SDS011;4336;49.310;8.646;2022-10-14T16:39:19;17.10;;;8.10;;
8596;SDS011;4336;49.310;8.646;2022-10-14T16:41:45;13.50;;;9.57;;
8596;SDS011;4336;49.310;8.646;2022-10-14T16:44:11;10.13;;;7.63;;
8596;SDS011;4336;49.310;8.646;2022-10-14T16:46:55;8.90;;;6.83;;
8596;SDS011;4336;49.310;8.646;2022-10-14T16:49:41;16.33;;;8.00;;
8596;SDS011;4336;49.310;8.646;2022-10-14T16:52:08;17.10;;;10.40;;
8596;SDS011;4336;49.310;8.646;2022-10-14T16:54:34;9.40;;;6.17;;
8596;SDS011;4336;49.310;8.646;2022-10-14T16:57:00;9.13;;;7.70;;
8596;SDS011;4336;49.310;8.646;2022-10-14T16:59:28;10.43;;;7.70;;
8596;SDS011;4336;49.310;8.646;2022-10-14T17:01:55;7.87;;;6.07;;
8596;SDS011;4336;49.310;8.646;2022-10-14T17:04:21;12.30;;;6.97;;
8596;SDS011;4336;49.310;8.646;2022-10-14T17:06:53;9.73;;;8.00;;
8596;SDS011;4336;49.310;8.646;2022-10-14T17:09:22;8.87;;;6.67;;
8596;SDS011;4336;49.310;8.646;2022-10-14T17:11:50;7.77;;;6.63;;
8596;SDS011;4336;49.310;8.646;2022-10-14T17:14:17;8.37;;;7.50;;
8596;SDS011;4336;49.310;8.646;2022-10-14T17:16:46;9.17;;;7.37;;
8596;SDS011;4336;49.310;8.646;2022-10-14T17:19:14;7.83;;;6.37;;
8596;SDS011;4336;49.310;8.646;2022-10-14T17:21:40;12.70;;;8.43;;
8596;SDS011;4336;49.310;8.646;2022-10-14T17:24:08;11.10;;;8.93;;
8596;SDS011;4336;49.310;8.646;2022-10-14T17:26:34;12.37;;;7.67;;
8596;SDS011;4336;49.310;8.646;2022-10-14T17:29:00;10.60;;;8.67;;
8596;SDS011;4336;49.310;8.646;2022-10-14T17:31:26;13.37;;;8.70;;
8596;SDS011;4336;49.310;8.646;2022-10-14T17:33:53;15.43;;;9.97;;
8596;SDS011;4336;49.310;8.646;2022-10-14T17:36:23;16.37;;;11.17;;
8596;SDS011;4336;49.310;8.646;2022-10-14T17:38:52;17.57;;;13.10;;